^^
Saratoga-Weather Station Historical Data
Daily Summary for November 29, 2021 Units:  Metric    English   Both
Daily Weekly Monthly Yearly Custom
  High: Low: Average:
Temperature: 3.3 °C 0.3 °C 2 °C
Dew Point: 1.5 °C -1.1 °C 0.4 °C
Humidity: 93% 85% 89%
Wind Speed: 24.1km/h 0km/h 7.5km/h
Wind Gust: 25.7km/h - -
Wind- - West
Pressure: 1016.6 hPa 1002.0 hPa -
Precipitation: 0.0 mm    
Historical Graphs
 
 
Tabular Data for November 29, 2021
Time Temperature Dew Point Pressure Wind Wind Speed Wind Gust Humidity Rainfall Rate (Hourly) solar
00:01 2.4 °C 1.1 °C 1002.0 hPa WNW 3.2 km/h 4.8 km/h 91% 0.0 mm 0 W/m2
00:06 2.4 °C 1.1 °C 1002.0 hPa WNW 3.2 km/h 3.2 km/h 91% 0.0 mm 0 W/m2
00:11 2.4 °C 1.1 °C 1002.0 hPa NW 3.2 km/h 14.5 km/h 91% 0.0 mm 0 W/m2
00:16 2.4 °C 1.1 °C 1002.0 hPa NW 3.2 km/h 4.8 km/h 91% 0.0 mm 0 W/m2
00:21 2.4 °C 1.1 °C 1002.0 hPa WNW 3.2 km/h 9.7 km/h 91% 0.0 mm 0 W/m2
00:26 2.4 °C 1.1 °C 1002.4 hPa WNW 1.4 km/h 6.4 km/h 91% 0.0 mm 0 W/m2
00:31 2.4 °C 1.1 °C 1002.4 hPa West 4.7 km/h 11.3 km/h 91% 0.0 mm 0 W/m2
00:36 2.4 °C 1.1 °C 1002.4 hPa WNW 4.7 km/h 9.7 km/h 91% 0.0 mm 0 W/m2
00:41 2.4 °C 1.1 °C 1002.4 hPa West 4.7 km/h 9.7 km/h 91% 0.0 mm 0 W/m2
00:46 2.4 °C 1.1 °C 1002.4 hPa WNW 3.2 km/h 8 km/h 91% 0.0 mm 0 W/m2
00:51 2.3 °C 1 °C 1002.4 hPa West 4.7 km/h 9.7 km/h 91% 0.0 mm 0 W/m2
00:56 2.3 °C 1 °C 1002.4 hPa West 4.7 km/h 6.4 km/h 91% 0.0 mm 0 W/m2
01:01 2.3 °C 1 °C 1002.4 hPa NW 1.4 km/h 9.7 km/h 91% 0.0 mm 0 W/m2
01:11 2.2 °C 0.9 °C 1002.4 hPa WNW 1.4 km/h 1.6 km/h 91% 0.0 mm 0 W/m2
01:16 2.2 °C 0.9 °C 1002.7 hPa WNW 1.4 km/h 3.2 km/h 91% 0.0 mm 0 W/m2
01:21 2.1 °C 0.8 °C 1002.7 hPa WNW 3.2 km/h 4.8 km/h 91% 0.0 mm 0 W/m2
01:26 2.1 °C 0.9 °C 1002.7 hPa WNW 3.2 km/h 3.2 km/h 92% 0.0 mm 0 W/m2
01:31 2.1 °C 0.9 °C 1002.7 hPa West 3.2 km/h 3.2 km/h 92% 0.0 mm 0 W/m2
01:36 2 °C 0.8 °C 1002.7 hPa WNW 4.7 km/h 6.4 km/h 92% 0.0 mm 0 W/m2
01:41 2.1 °C 0.9 °C 1002.7 hPa WSW 3.2 km/h 6.4 km/h 92% 0.0 mm 0 W/m2
01:46 2.1 °C 0.8 °C 1002.7 hPa West 3.2 km/h 6.4 km/h 91% 0.0 mm 0 W/m2
01:51 2 °C 0.7 °C 1003.0 hPa WNW 4.7 km/h 4.8 km/h 91% 0.0 mm 0 W/m2
01:56 1.9 °C 0.6 °C 1003.0 hPa WNW 1.4 km/h 3.2 km/h 91% 0.0 mm 0 W/m2
02:01 1.9 °C 0.6 °C 1003.0 hPa Calm     91% 0.0 mm 0 W/m2
02:06 1.8 °C 0.5 °C 1003.4 hPa Calm     91% 0.0 mm 0 W/m2
02:12 1.7 °C 0.4 °C 1003.4 hPa Calm     91% 0.0 mm 0 W/m2
02:17 1.4 °C 0.1 °C 1003.4 hPa Calm     91% 0.0 mm 0 W/m2
02:22 1.3 °C 0 °C 1003.4 hPa Calm     91% 0.0 mm 0 W/m2
02:32 0.9 °C -0.3 °C 1003.4 hPa Calm   3.2 km/h 92% 0.0 mm 0 W/m2
02:37 0.9 °C -0.3 °C 1003.7 hPa WNW 1.4 km/h 4.8 km/h 92% 0.0 mm 0 W/m2
02:42 0.8 °C -0.4 °C 1003.7 hPa Calm   3.2 km/h 92% 0.0 mm 0 W/m2
02:52 0.6 °C -0.4 °C 1004.1 hPa WSW 1.4 km/h 3.2 km/h 93% 0.0 mm 0 W/m2
02:57 0.5 °C -0.5 °C 1004.1 hPa WSW 3.2 km/h 4.8 km/h 93% 0.0 mm 0 W/m2
03:02 0.5 °C -0.5 °C 1004.1 hPa WNW 4.7 km/h 4.8 km/h 93% 0.0 mm 0 W/m2
03:07 0.6 °C -0.4 °C 1004.1 hPa West 1.4 km/h 4.8 km/h 93% 0.0 mm 0 W/m2
03:12 0.6 °C -0.4 °C 1004.1 hPa Calm   3.2 km/h 93% 0.0 mm 0 W/m2
03:17 0.5 °C -0.5 °C 1004.1 hPa West 1.4 km/h 3.2 km/h 93% 0.0 mm 0 W/m2
03:22 0.5 °C -0.5 °C 1004.1 hPa West 3.2 km/h 6.4 km/h 93% 0.0 mm 0 W/m2
03:27 0.5 °C -0.5 °C 1004.1 hPa West 1.4 km/h 8 km/h 93% 0.0 mm 0 W/m2
03:32 0.6 °C -0.4 °C 1004.4 hPa West 1.4 km/h 3.2 km/h 93% 0.0 mm 0 W/m2
03:37 0.5 °C -0.5 °C 1004.4 hPa West 4.7 km/h 9.7 km/h 93% 0.0 mm 0 W/m2
03:42 0.6 °C -0.4 °C 1004.4 hPa West 3.2 km/h 4.8 km/h 93% 0.0 mm 0 W/m2
03:47 0.5 °C -0.6 °C 1004.4 hPa West 4.7 km/h 4.8 km/h 92% 0.0 mm 0 W/m2
03:52 0.5 °C -0.6 °C 1004.4 hPa NW 4.7 km/h 6.4 km/h 92% 0.0 mm 0 W/m2
03:57 0.5 °C -0.6 °C 1004.4 hPa WNW 3.2 km/h 6.4 km/h 92% 0.0 mm 0 W/m2
04:02 0.5 °C -0.6 °C 1004.7 hPa West 4.7 km/h 9.7 km/h 92% 0.0 mm 0 W/m2
04:07 0.6 °C -0.5 °C 1004.7 hPa West 6.4 km/h 11.3 km/h 92% 0.0 mm 0 W/m2
04:17 0.7 °C -0.5 °C 1004.7 hPa West 4.7 km/h 11.3 km/h 92% 0.0 mm 0 W/m2
04:22 0.7 °C -0.5 °C 1004.7 hPa West 4.7 km/h 9.7 km/h 92% 0.0 mm 0 W/m2
04:27 0.8 °C -0.5 °C 1004.7 hPa WNW 3.2 km/h 9.7 km/h 91% 0.0 mm 0 W/m2
04:32 0.8 °C -0.5 °C 1004.7 hPa WNW 4.7 km/h 12.9 km/h 91% 0.0 mm 0 W/m2
04:37 0.8 °C -0.5 °C 1004.7 hPa West 4.7 km/h 6.4 km/h 91% 0.0 mm 0 W/m2
04:42 0.8 °C -0.5 °C 1004.7 hPa WSW 7.9 km/h 12.9 km/h 91% 0.0 mm 0 W/m2
04:47 0.8 °C -0.5 °C 1004.7 hPa WSW 11.1 km/h 14.5 km/h 91% 0.0 mm 0 W/m2
04:52 0.8 °C -0.5 °C 1004.7 hPa WNW 9.7 km/h 9.7 km/h 91% 0.0 mm 0 W/m2
04:57 0.8 °C -0.7 °C 1005.1 hPa WNW 7.9 km/h 14.5 km/h 90% 0.0 mm 0 W/m2
05:02 0.8 °C -0.7 °C 1005.1 hPa West 9.7 km/h 12.9 km/h 90% 0.0 mm 0 W/m2
05:07 0.8 °C -0.7 °C 1005.1 hPa West 4.7 km/h 12.9 km/h 90% 0.0 mm 0 W/m2
05:12 0.8 °C -0.7 °C 1005.1 hPa West 9.7 km/h 11.3 km/h 90% 0.0 mm 0 W/m2
05:17 0.8 °C -0.7 °C 1005.1 hPa WSW 6.4 km/h 19.3 km/h 90% 0.0 mm 0 W/m2
05:22 0.7 °C -0.6 °C 1005.1 hPa West 13 km/h 12.9 km/h 91% 0.0 mm 0 W/m2
05:27 0.7 °C -0.6 °C 1005.4 hPa WNW 13 km/h 19.3 km/h 91% 0.0 mm 0 W/m2
05:32 0.7 °C -0.8 °C 1005.4 hPa West 3.2 km/h 9.7 km/h 90% 0.0 mm 0 W/m2
05:37 0.7 °C -0.6 °C 1005.4 hPa West 4.7 km/h 6.4 km/h 91% 0.0 mm 0 W/m2
05:47 0.7 °C -0.6 °C 1005.8 hPa WNW 4.7 km/h 9.7 km/h 91% 0.0 mm 0 W/m2
05:52 0.6 °C -0.7 °C 1005.8 hPa West 4.7 km/h 14.5 km/h 91% 0.0 mm 0 W/m2
05:57 0.6 °C -0.9 °C 1005.8 hPa WNW 11.1 km/h 12.9 km/h 90% 0.0 mm 0 W/m2
06:02 0.6 °C -0.9 °C 1005.8 hPa WNW 3.2 km/h 6.4 km/h 90% 0.0 mm 0 W/m2
06:07 0.6 °C -0.9 °C 1005.8 hPa West 4.7 km/h 14.5 km/h 90% 0.0 mm 0 W/m2
06:12 0.6 °C -0.9 °C 1005.8 hPa West 6.4 km/h 11.3 km/h 90% 0.0 mm 0 W/m2
06:17 0.7 °C -0.8 °C 1006.1 hPa West 4.7 km/h 12.9 km/h 90% 0.0 mm 0 W/m2
06:22 0.7 °C -0.8 °C 1006.1 hPa WNW 7.9 km/h 11.3 km/h 90% 0.0 mm 0 W/m2
06:27 0.7 °C -0.8 °C 1006.1 hPa West 9.7 km/h 14.5 km/h 90% 0.0 mm 0 W/m2
06:32 0.7 °C -0.8 °C 1006.1 hPa WNW 4.7 km/h 12.9 km/h 90% 0.0 mm 0 W/m2
06:37 0.7 °C -0.8 °C 1006.1 hPa WNW 6.4 km/h 11.3 km/h 90% 0.0 mm 0 W/m2
06:42 0.7 °C -0.8 °C 1006.4 hPa West 9.7 km/h 16.1 km/h 90% 0.0 mm 0 W/m2
06:47 0.6 °C -0.9 °C 1006.4 hPa WNW 9.7 km/h 11.3 km/h 90% 0.0 mm 0 W/m2
06:52 0.6 °C -0.9 °C 1006.4 hPa West 9.7 km/h 14.5 km/h 90% 0.0 mm 0 W/m2
06:57 0.7 °C -0.8 °C 1006.8 hPa WNW 9.7 km/h 12.9 km/h 90% 0.0 mm 0 W/m2
07:02 0.7 °C -0.8 °C 1006.8 hPa West 4.7 km/h 9.7 km/h 90% 0.0 mm 0 W/m2
07:07 0.6 °C -0.9 °C 1006.8 hPa WNW 4.7 km/h 11.3 km/h 90% 0.0 mm 0 W/m2
07:12 0.6 °C -1 °C 1007.1 hPa NW 1.4 km/h 6.4 km/h 89% 0.0 mm 0 W/m2
07:17 0.6 °C -1 °C 1007.1 hPa Calm   3.2 km/h 89% 0.0 mm 0 W/m2
07:22 0.5 °C -1.1 °C 1007.5 hPa NNW 3.2 km/h 6.4 km/h 89% 0.0 mm 0 W/m2
07:27 0.4 °C -1 °C 1007.5 hPa NW 3.2 km/h 4.8 km/h 90% 0.0 mm 0 W/m2
07:32 0.3 °C -1.1 °C 1007.5 hPa WNW 3.2 km/h 3.2 km/h 90% 0.0 mm 0 W/m2
07:37 0.3 °C -1.1 °C 1007.5 hPa WSW 6.4 km/h 6.4 km/h 90% 0.0 mm 0 W/m2
07:42 0.3 °C -1.1 °C 1007.5 hPa WNW 3.2 km/h 4.8 km/h 90% 0.0 mm 0 W/m2
07:47 0.4 °C -0.9 °C 1007.8 hPa West 6.4 km/h 9.7 km/h 91% 0.0 mm 0 W/m2
07:52 0.6 °C -0.9 °C 1007.8 hPa WNW 3.2 km/h 8 km/h 90% 0.0 mm 0 W/m2
07:57 0.7 °C -0.8 °C 1007.8 hPa WNW 6.4 km/h 11.3 km/h 90% 0.0 mm 0 W/m2
08:07 0.8 °C -0.8 °C 1008.1 hPa WNW 6.4 km/h 14.5 km/h 89% 0.0 mm 0 W/m2
08:12 0.8 °C -0.8 °C 1008.1 hPa WNW 6.4 km/h 11.3 km/h 89% 0.0 mm 5 W/m2
08:17 0.8 °C -0.8 °C 1008.1 hPa WNW 3.2 km/h 9.7 km/h 89% 0.0 mm 7 W/m2
08:22 0.8 °C -1 °C 1008.5 hPa West 13 km/h 17.7 km/h 88% 0.0 mm 9 W/m2
08:27 0.8 °C -1 °C 1008.5 hPa West 3.2 km/h 12.9 km/h 88% 0.0 mm 11 W/m2
08:32 0.9 °C -0.9 °C 1008.5 hPa WNW 9.7 km/h 17.7 km/h 88% 0.0 mm 12 W/m2
08:37 0.9 °C -0.9 °C 1008.5 hPa WNW 7.9 km/h 11.3 km/h 88% 0.0 mm 14 W/m2
08:42 0.9 °C -0.9 °C 1008.5 hPa West 3.2 km/h 8 km/h 88% 0.0 mm 14 W/m2
08:47 0.9 °C -0.9 °C 1008.8 hPa West 9.7 km/h 9.7 km/h 88% 0.0 mm 14 W/m2
08:53 0.9 °C -0.9 °C 1008.8 hPa WNW 4.7 km/h 12.9 km/h 88% 0.0 mm 18 W/m2
08:58 0.9 °C -0.7 °C 1008.8 hPa NW 3.2 km/h 11.3 km/h 89% 0.0 mm 21 W/m2
09:03 0.9 °C -0.7 °C 1008.8 hPa SW 7.9 km/h 9.7 km/h 89% 0.0 mm 25 W/m2
09:08 0.9 °C -0.7 °C 1009.1 hPa West 3.2 km/h 11.3 km/h 89% 0.0 mm 23 W/m2
09:13 0.8 °C -0.8 °C 1009.1 hPa WNW 6.4 km/h 11.3 km/h 89% 0.0 mm 21 W/m2
09:18 0.8 °C -0.7 °C 1009.1 hPa WSW 1.4 km/h 11.3 km/h 90% 0.0 mm 25 W/m2
09:23 0.8 °C -0.7 °C 1008.8 hPa WSW 3.2 km/h 12.9 km/h 90% 0.0 mm 25 W/m2
09:28 0.8 °C -0.7 °C 1009.1 hPa SW 7.9 km/h 11.3 km/h 90% 0.0 mm 26 W/m2
09:33 0.9 °C -0.6 °C 1009.1 hPa WSW 9.7 km/h 17.7 km/h 90% 0.0 mm 26 W/m2
09:38 0.9 °C -0.6 °C 1009.1 hPa NW 3.2 km/h 9.7 km/h 90% 0.0 mm 28 W/m2
09:43 0.9 °C -0.6 °C 1009.1 hPa West 3.2 km/h 12.9 km/h 90% 0.0 mm 33 W/m2
09:48 0.9 °C -0.6 °C 1009.5 hPa West 3.2 km/h 4.8 km/h 90% 0.0 mm 42 W/m2
09:53 1 °C -0.5 °C 1009.5 hPa West 1.4 km/h 12.9 km/h 90% 0.0 mm 47 W/m2
09:58 1.1 °C -0.4 °C 1009.5 hPa West 6.4 km/h 12.9 km/h 90% 0.0 mm 53 W/m2
10:03 1.2 °C -0.3 °C 1009.5 hPa West 13 km/h 12.9 km/h 90% 0.0 mm 74 W/m2
10:08 1.2 °C -0.3 °C 1009.5 hPa WNW 3.2 km/h 11.3 km/h 90% 0.0 mm 74 W/m2
10:13 1.3 °C -0.2 °C 1009.5 hPa WNW 14.3 km/h 16.1 km/h 90% 0.0 mm 44 W/m2
10:18 1.3 °C -0.2 °C 1009.5 hPa NW 1.4 km/h 11.3 km/h 90% 0.0 mm 32 W/m2
10:23 1.3 °C -0.2 °C 1009.8 hPa WNW 4.7 km/h 6.4 km/h 90% 0.0 mm 32 W/m2
10:28 1.3 °C -0.2 °C 1009.8 hPa WNW 4.7 km/h 9.7 km/h 90% 0.0 mm 37 W/m2
10:33 1.3 °C -0.2 °C 1009.8 hPa West 3.2 km/h 9.7 km/h 90% 0.0 mm 33 W/m2
10:38 1.3 °C -0.2 °C 1009.8 hPa WSW 6.4 km/h 12.9 km/h 90% 0.0 mm 42 W/m2
10:43 1.4 °C -0.1 °C 1009.8 hPa West 11.1 km/h 14.5 km/h 90% 0.0 mm 42 W/m2
10:48 1.4 °C -0.1 °C 1009.8 hPa West 9.7 km/h 19.3 km/h 90% 0.0 mm 35 W/m2
10:53 1.6 °C 0.1 °C 1010.2 hPa WNW 13 km/h 14.5 km/h 90% 0.0 mm 37 W/m2
10:58 1.7 °C 0.2 °C 1009.8 hPa West 14.3 km/h 19.3 km/h 90% 0.0 mm 37 W/m2
11:03 1.8 °C 0.2 °C 1010.2 hPa WNW 6.4 km/h 12.9 km/h 89% 0.0 mm 39 W/m2
11:08 1.9 °C 0.3 °C 1010.2 hPa West 11.1 km/h 17.7 km/h 89% 0.0 mm 37 W/m2
11:13 1.9 °C 0.3 °C 1010.2 hPa West 4.7 km/h 12.9 km/h 89% 0.0 mm 35 W/m2
11:18 1.9 °C 0.1 °C 1010.2 hPa WSW 6.4 km/h 22.5 km/h 88% 0.0 mm 39 W/m2
11:23 2 °C 0.2 °C 1010.2 hPa West 9.7 km/h 19.3 km/h 88% 0.0 mm 42 W/m2
11:28 2.1 °C 0.3 °C 1010.2 hPa WNW 6.4 km/h 17.7 km/h 88% 0.0 mm 63 W/m2
11:33 2.1 °C 0.3 °C 1010.2 hPa NW 6.4 km/h 19.3 km/h 88% 0.0 mm 74 W/m2
11:38 2.2 °C 0.4 °C 1010.2 hPa NW 7.9 km/h 17.7 km/h 88% 0.0 mm 105 W/m2
11:43 2.3 °C 0.5 °C 1010.2 hPa West 6.4 km/h 12.9 km/h 88% 0.0 mm 139 W/m2
11:48 2.3 °C 0.4 °C 1010.5 hPa West 9.7 km/h 16.1 km/h 87% 0.0 mm 146 W/m2
11:53 2.4 °C 0.5 °C 1010.5 hPa NW 13 km/h 16.1 km/h 87% 0.0 mm 95 W/m2
11:58 2.4 °C 0.5 °C 1010.5 hPa West 6.4 km/h 19.3 km/h 87% 0.0 mm 113 W/m2
12:03 2.4 °C 0.5 °C 1010.5 hPa WNW 11.1 km/h 20.9 km/h 87% 0.0 mm 141 W/m2
12:08 2.5 °C 0.4 °C 1010.5 hPa NW 6.4 km/h 20.9 km/h 86% 0.0 mm 148 W/m2
12:18 2.6 °C 0.7 °C 1010.5 hPa WNW 7.9 km/h 17.7 km/h 87% 0.0 mm 146 W/m2
12:23 2.7 °C 0.8 °C 1010.5 hPa West 11.1 km/h 19.3 km/h 87% 0.0 mm 142 W/m2
12:28 2.7 °C 0.6 °C 1010.5 hPa WNW 14.3 km/h 19.3 km/h 86% 0.0 mm 100 W/m2
12:33 2.6 °C 0.5 °C 1010.5 hPa WNW 11.1 km/h 17.7 km/h 86% 0.0 mm 88 W/m2
12:38 2.6 °C 0.5 °C 1010.5 hPa West 6.4 km/h 22.5 km/h 86% 0.0 mm 146 W/m2
12:43 2.6 °C 0.7 °C 1010.5 hPa WNW 6.4 km/h 17.7 km/h 87% 0.0 mm 134 W/m2
12:48 2.7 °C 0.6 °C 1010.5 hPa West 13 km/h 22.5 km/h 86% 0.0 mm 169 W/m2
12:53 2.9 °C 0.8 °C 1010.5 hPa WSW 19.5 km/h 19.3 km/h 86% 0.0 mm 162 W/m2
12:58 2.9 °C 0.6 °C 1010.5 hPa West 13 km/h 20.9 km/h 85% 0.0 mm 100 W/m2
13:03 2.9 °C 0.6 °C 1010.5 hPa West 3.2 km/h 14.5 km/h 85% 0.0 mm 83 W/m2
13:08 2.8 °C 0.5 °C 1010.8 hPa WNW 13 km/h 16.1 km/h 85% 0.0 mm 97 W/m2
13:13 2.8 °C 0.7 °C 1010.8 hPa West 16.3 km/h 17.7 km/h 86% 0.0 mm 93 W/m2
13:18 2.8 °C 0.7 °C 1010.8 hPa NW 4.7 km/h 17.7 km/h 86% 0.0 mm 88 W/m2
13:23 2.8 °C 0.7 °C 1010.8 hPa NW 13 km/h 19.3 km/h 86% 0.0 mm 134 W/m2
13:28 2.9 °C 0.8 °C 1010.8 hPa WSW 7.9 km/h 17.7 km/h 86% 0.0 mm 151 W/m2
13:33 3 °C 0.9 °C 1010.8 hPa WNW 14.3 km/h 19.3 km/h 86% 0.0 mm 132 W/m2
13:38 3.1 °C 1 °C 1010.8 hPa NW 16.3 km/h 17.7 km/h 86% 0.0 mm 111 W/m2
13:43 3.1 °C 1 °C 1010.8 hPa WSW 6.4 km/h 19.3 km/h 86% 0.0 mm 132 W/m2
13:48 3.1 °C 1 °C 1010.8 hPa WNW 11.1 km/h 17.7 km/h 86% 0.0 mm 132 W/m2
13:53 3.1 °C 0.8 °C 1010.8 hPa WNW 11.1 km/h 20.9 km/h 85% 0.0 mm 127 W/m2
13:58 3.1 °C 0.8 °C 1010.8 hPa West 13 km/h 24.1 km/h 85% 0.0 mm 104 W/m2
14:08 3.1 °C 0.8 °C 1010.8 hPa WSW 24.1 km/h 24.1 km/h 85% 0.0 mm 88 W/m2
14:13 3.1 °C 0.8 °C 1010.8 hPa WSW 14.3 km/h 17.7 km/h 85% 0.0 mm 69 W/m2
14:18 3.1 °C 0.8 °C 1010.8 hPa WSW 24.1 km/h 24.1 km/h 85% 0.0 mm 49 W/m2
14:23 3.1 °C 0.8 °C 1010.8 hPa WNW 6.4 km/h 16.1 km/h 85% 0.0 mm 53 W/m2
14:28 3.2 °C 0.9 °C 1010.8 hPa NW 7.9 km/h 11.3 km/h 85% 0.0 mm 63 W/m2
14:33 3.2 °C 1.1 °C 1010.8 hPa West 6.4 km/h 14.5 km/h 86% 0.0 mm 70 W/m2
14:38 3.2 °C 0.9 °C 1010.8 hPa West 9.7 km/h 19.3 km/h 85% 0.0 mm 69 W/m2
14:43 3.3 °C 1 °C 1010.8 hPa WNW 14.3 km/h 16.1 km/h 85% 0.0 mm 74 W/m2
14:48 3.3 °C 1 °C 1011.2 hPa West 9.7 km/h 19.3 km/h 85% 0.0 mm 65 W/m2
14:53 3.3 °C 1.2 °C 1011.2 hPa West 13 km/h 17.7 km/h 86% 0.0 mm 62 W/m2
14:58 3.2 °C 1.1 °C 1011.2 hPa West 14.3 km/h 16.1 km/h 86% 0.0 mm 53 W/m2
15:03 3.2 °C 1.1 °C 1011.2 hPa West 9.7 km/h 14.5 km/h 86% 0.0 mm 47 W/m2
15:08 3.2 °C 1.1 °C 1011.5 hPa WNW 11.1 km/h 19.3 km/h 86% 0.0 mm 40 W/m2
15:13 3.1 °C 1 °C 1011.5 hPa WSW 13 km/h 22.5 km/h 86% 0.0 mm 47 W/m2
15:18 3.1 °C 1 °C 1011.5 hPa West 6.4 km/h 16.1 km/h 86% 0.0 mm 33 W/m2
15:23 3.1 °C 1 °C 1011.9 hPa NW 13 km/h 17.7 km/h 86% 0.0 mm 33 W/m2
15:28 3.1 °C 1 °C 1011.9 hPa WNW 6.4 km/h 17.7 km/h 86% 0.0 mm 44 W/m2
15:33 3.1 °C 1 °C 1011.9 hPa West 11.1 km/h 17.7 km/h 86% 0.0 mm 39 W/m2
15:38 3 °C 1 °C 1011.9 hPa NW 14.3 km/h 14.5 km/h 87% 0.0 mm 39 W/m2
15:43 3 °C 1 °C 1011.9 hPa West 9.7 km/h 17.7 km/h 87% 0.0 mm 28 W/m2
15:48 2.9 °C 1 °C 1011.9 hPa West 4.7 km/h 12.9 km/h 87% 0.0 mm 32 W/m2
16:03 2.8 °C 0.9 °C 1012.2 hPa WNW 6.4 km/h 12.9 km/h 87% 0.0 mm 33 W/m2
16:08 2.8 °C 0.9 °C 1012.2 hPa WNW 13 km/h 24.1 km/h 87% 0.0 mm 25 W/m2
16:13 2.9 °C 1 °C 1012.5 hPa WSW 11.1 km/h 16.1 km/h 87% 0.0 mm 19 W/m2
16:18 2.8 °C 0.9 °C 1012.5 hPa West 14.3 km/h 17.7 km/h 87% 0.0 mm 11 W/m2
16:23 2.8 °C 0.9 °C 1012.5 hPa West 11.1 km/h 12.9 km/h 87% 0.0 mm 7 W/m2
16:28 2.8 °C 0.9 °C 1012.5 hPa WNW 7.9 km/h 16.1 km/h 87% 0.0 mm 5 W/m2
16:33 2.8 °C 0.9 °C 1012.5 hPa West 9.7 km/h 12.9 km/h 87% 0.0 mm 5 W/m2
16:38 2.8 °C 0.9 °C 1012.5 hPa WSW 3.2 km/h 12.9 km/h 87% 0.0 mm 5 W/m2
16:48 2.7 °C 0.8 °C 1012.5 hPa WSW 6.4 km/h 14.5 km/h 87% 0.0 mm 0 W/m2
16:53 2.7 °C 0.8 °C 1012.9 hPa WNW 11.1 km/h 19.3 km/h 87% 0.0 mm 0 W/m2
16:58 2.6 °C 0.8 °C 1012.9 hPa West 4.7 km/h 20.9 km/h 88% 0.0 mm 0 W/m2
17:03 2.6 °C 0.8 °C 1012.9 hPa WNW 6.4 km/h 20.9 km/h 88% 0.0 mm 0 W/m2
17:08 2.5 °C 0.7 °C 1012.9 hPa WNW 3.2 km/h 11.3 km/h 88% 0.0 mm 0 W/m2
17:13 2.5 °C 0.7 °C 1012.9 hPa WNW 3.2 km/h 20.9 km/h 88% 0.0 mm 0 W/m2
17:18 2.4 °C 0.6 °C 1012.9 hPa WNW 11.1 km/h 16.1 km/h 88% 0.0 mm 0 W/m2
17:23 2.4 °C 0.6 °C 1012.9 hPa NNW 4.7 km/h 17.7 km/h 88% 0.0 mm 0 W/m2
17:33 2.4 °C 0.8 °C 1012.9 hPa West 16.3 km/h 17.7 km/h 89% 0.0 mm 0 W/m2
17:38 2.4 °C 0.8 °C 1012.9 hPa WSW 11.1 km/h 19.3 km/h 89% 0.0 mm 0 W/m2
17:43 2.4 °C 0.8 °C 1013.2 hPa WNW 7.9 km/h 12.9 km/h 89% 0.0 mm 0 W/m2
17:48 2.4 °C 0.8 °C 1013.2 hPa West 13 km/h 14.5 km/h 89% 0.0 mm 0 W/m2
17:53 2.4 °C 0.8 °C 1013.5 hPa WNW 14.3 km/h 16.1 km/h 89% 0.0 mm 0 W/m2
17:58 2.4 °C 0.9 °C 1013.5 hPa West 13 km/h 24.1 km/h 90% 0.0 mm 0 W/m2
18:03 2.5 °C 1 °C 1013.5 hPa West 11.1 km/h 17.7 km/h 90% 0.0 mm 0 W/m2
18:08 2.5 °C 1 °C 1013.5 hPa West 11.1 km/h 24.1 km/h 90% 0.0 mm 0 W/m2
18:13 2.6 °C 1.1 °C 1013.5 hPa WSW 7.9 km/h 17.7 km/h 90% 0.0 mm 0 W/m2
18:19 2.6 °C 1.1 °C 1013.5 hPa WSW 7.9 km/h 22.5 km/h 90% 0.0 mm 0 W/m2
18:24 2.6 °C 1.1 °C 1013.5 hPa WSW 6.4 km/h 14.5 km/h 90% 0.0 mm 0 W/m2
18:29 2.7 °C 1.2 °C 1013.9 hPa SW 13 km/h 17.7 km/h 90% 0.0 mm 0 W/m2
18:34 2.7 °C 1.2 °C 1013.9 hPa West 13 km/h 19.3 km/h 90% 0.0 mm 0 W/m2
18:39 2.7 °C 1.2 °C 1013.9 hPa West 3.2 km/h 14.5 km/h 90% 0.0 mm 0 W/m2
18:44 2.7 °C 1.2 °C 1014.2 hPa WNW 14.3 km/h 24.1 km/h 90% 0.0 mm 0 W/m2
18:49 2.8 °C 1.3 °C 1014.2 hPa West 13 km/h 14.5 km/h 90% 0.0 mm 0 W/m2
18:54 2.8 °C 1.3 °C 1014.2 hPa SW 4.7 km/h 17.7 km/h 90% 0.0 mm 0 W/m2
18:59 2.8 °C 1.3 °C 1014.6 hPa West 6.4 km/h 17.7 km/h 90% 0.0 mm 0 W/m2
19:04 2.8 °C 1.3 °C 1014.6 hPa WNW 6.4 km/h 25.7 km/h 90% 0.0 mm 0 W/m2
19:09 2.8 °C 1.3 °C 1014.6 hPa West 13 km/h 16.1 km/h 90% 0.0 mm 0 W/m2
19:14 2.8 °C 1.3 °C 1014.6 hPa WNW 7.9 km/h 14.5 km/h 90% 0.0 mm 0 W/m2
19:19 2.8 °C 1.3 °C 1014.6 hPa WNW 9.7 km/h 19.3 km/h 90% 0.0 mm 0 W/m2
19:24 2.9 °C 1.4 °C 1014.6 hPa West 6.4 km/h 22.5 km/h 90% 0.0 mm 0 W/m2
19:29 2.9 °C 1.4 °C 1014.6 hPa West 6.4 km/h 25.7 km/h 90% 0.0 mm 0 W/m2
19:34 2.9 °C 1.3 °C 1014.6 hPa WSW 14.3 km/h 17.7 km/h 89% 0.0 mm 0 W/m2
19:39 2.8 °C 1.3 °C 1014.6 hPa WNW 13 km/h 16.1 km/h 90% 0.0 mm 0 W/m2
19:44 2.8 °C 1.3 °C 1014.6 hPa West 16.3 km/h 25.7 km/h 90% 0.0 mm 0 W/m2
19:49 2.7 °C 1.2 °C 1014.9 hPa WNW 7.9 km/h 14.5 km/h 90% 0.0 mm 0 W/m2
19:54 2.7 °C 1.2 °C 1014.9 hPa West 6.4 km/h 25.7 km/h 90% 0.0 mm 0 W/m2
19:59 2.7 °C 1.2 °C 1014.9 hPa WNW 13 km/h 17.7 km/h 90% 0.0 mm 0 W/m2
20:04 2.7 °C 1.2 °C 1014.9 hPa WNW 6.4 km/h 17.7 km/h 90% 0.0 mm 0 W/m2
20:09 2.6 °C 1.1 °C 1015.2 hPa WNW 13 km/h 19.3 km/h 90% 0.0 mm 0 W/m2
20:14 2.6 °C 1.1 °C 1015.2 hPa West 6.4 km/h 16.1 km/h 90% 0.0 mm 0 W/m2
20:19 2.6 °C 1.1 °C 1015.2 hPa WNW 13 km/h 19.3 km/h 90% 0.0 mm 0 W/m2
20:24 2.6 °C 1.1 °C 1015.2 hPa West 11.1 km/h 16.1 km/h 90% 0.0 mm 0 W/m2
20:29 2.6 °C 1.1 °C 1015.2 hPa SSW 13 km/h 17.7 km/h 90% 0.0 mm 0 W/m2
20:34 2.5 °C 1.2 °C 1015.2 hPa WNW 7.9 km/h 14.5 km/h 91% 0.0 mm 0 W/m2
20:39 2.5 °C 1.2 °C 1015.2 hPa WNW 11.1 km/h 17.7 km/h 91% 0.0 mm 0 W/m2
20:44 2.5 °C 1.2 °C 1015.6 hPa WNW 11.1 km/h 17.7 km/h 91% 0.0 mm 0 W/m2
20:49 2.5 °C 1.2 °C 1015.6 hPa West 13 km/h 20.9 km/h 91% 0.0 mm 0 W/m2
20:54 2.6 °C 1.3 °C 1015.2 hPa West 14.3 km/h 19.3 km/h 91% 0.0 mm 0 W/m2
20:59 2.6 °C 1.3 °C 1015.6 hPa West 19.5 km/h 19.3 km/h 91% 0.0 mm 0 W/m2
21:04 2.7 °C 1.4 °C 1015.6 hPa West 11.1 km/h 16.1 km/h 91% 0.0 mm 0 W/m2
21:09 2.7 °C 1.4 °C 1015.6 hPa WSW 6.4 km/h 19.3 km/h 91% 0.0 mm 0 W/m2
21:14 2.8 °C 1.5 °C 1015.6 hPa West 11.1 km/h 19.3 km/h 91% 0.0 mm 0 W/m2
21:24 2.8 °C 1.5 °C 1015.9 hPa WSW 14.3 km/h 16.1 km/h 91% 0.0 mm 0 W/m2
21:29 2.8 °C 1.5 °C 1015.9 hPa WSW 14.3 km/h 20.9 km/h 91% 0.0 mm 0 W/m2
21:34 2.9 °C 1.4 °C 1015.9 hPa WSW 11.1 km/h 11.3 km/h 90% 0.0 mm 0 W/m2
21:39 2.9 °C 1.4 °C 1015.9 hPa West 3.2 km/h 20.9 km/h 90% 0.0 mm 0 W/m2
21:44 2.9 °C 1.4 °C 1016.3 hPa West 6.4 km/h 16.1 km/h 90% 0.0 mm 0 W/m2
21:49 2.9 °C 1.4 °C 1016.3 hPa WNW 6.4 km/h 11.3 km/h 90% 0.0 mm 0 W/m2
21:54 2.9 °C 1.4 °C 1016.3 hPa WSW 6.4 km/h 16.1 km/h 90% 0.0 mm 0 W/m2
22:04 2.9 °C 1.4 °C 1016.3 hPa WSW 3.2 km/h 22.5 km/h 90% 0.0 mm 0 W/m2
22:09 2.9 °C 1.4 °C 1016.3 hPa WSW 14.3 km/h 16.1 km/h 90% 0.0 mm 0 W/m2
22:14 2.9 °C 1.4 °C 1016.3 hPa West 6.4 km/h 19.3 km/h 90% 0.0 mm 0 W/m2
22:19 2.9 °C 1.4 °C 1016.3 hPa West 4.7 km/h 12.9 km/h 90% 0.0 mm 0 W/m2
22:24 2.9 °C 1.3 °C 1016.3 hPa West 13 km/h 16.1 km/h 89% 0.0 mm 0 W/m2
22:29 3 °C 1.4 °C 1016.3 hPa WNW 4.7 km/h 12.9 km/h 89% 0.0 mm 0 W/m2
22:34 3 °C 1.4 °C 1016.3 hPa West 13 km/h 14.5 km/h 89% 0.0 mm 0 W/m2
22:39 3 °C 1.4 °C 1016.3 hPa West 9.7 km/h 9.7 km/h 89% 0.0 mm 0 W/m2
22:44 3.1 °C 1.5 °C 1016.3 hPa West 9.7 km/h 14.5 km/h 89% 0.0 mm 0 W/m2
22:49 3 °C 1.4 °C 1016.3 hPa West 4.7 km/h 8 km/h 89% 0.0 mm 0 W/m2
22:54 3 °C 1.4 °C 1016.3 hPa West 6.4 km/h 19.3 km/h 89% 0.0 mm 0 W/m2
22:59 3 °C 1.4 °C 1016.3 hPa West 9.7 km/h 11.3 km/h 89% 0.0 mm 0 W/m2
23:04 3 °C 1.4 °C 1016.3 hPa West 1.4 km/h 14.5 km/h 89% 0.0 mm 0 W/m2
23:09 3 °C 1.4 °C 1016.3 hPa WSW 6.4 km/h 17.7 km/h 89% 0.0 mm 0 W/m2
23:14 2.9 °C 1.4 °C 1016.3 hPa West 4.7 km/h 19.3 km/h 90% 0.0 mm 0 W/m2
23:19 2.9 °C 1.4 °C 1016.3 hPa WSW 4.7 km/h 19.3 km/h 90% 0.0 mm 0 W/m2
23:24 2.9 °C 1.4 °C 1016.3 hPa WNW 11.1 km/h 14.5 km/h 90% 0.0 mm 0 W/m2
23:29 2.8 °C 1.3 °C 1016.6 hPa West 6.4 km/h 19.3 km/h 90% 0.0 mm 0 W/m2
23:34 2.8 °C 1.3 °C 1016.6 hPa WNW 4.7 km/h 11.3 km/h 90% 0.0 mm 0 W/m2
23:39 2.8 °C 1.3 °C 1016.6 hPa NW 4.7 km/h 14.5 km/h 90% 0.0 mm 0 W/m2
23:44 2.8 °C 1.5 °C 1016.6 hPa WNW 4.7 km/h 19.3 km/h 91% 0.0 mm 0 W/m2
23:49 2.7 °C 1.2 °C 1016.6 hPa WSW 4.7 km/h 6.4 km/h 90% 0.0 mm 0 W/m2
23:54 2.7 °C 1.4 °C 1016.6 hPa West 4.7 km/h 16.1 km/h 91% 0.0 mm 0 W/m2
23:59 2.7 °C 1.4 °C 1016.6 hPa WNW 6.4 km/h 8 km/h 91% 0.0 mm 0 W/m2
Juneau County Weather
Compliments of Weather Underground - 4 mb